Isle of Scalpay, United Kingdom
Current Conditions -  °F | °C
As of 7:50 PM on Tuesday 21 Oct 2014 (Local Time) from EGPO Reporting Station
Rain Showers Rain Showers  
Wind Chill: 35°   Ceiling: Unl
Heat Index: 43°   Visibility: 6mi
Dew Point: 37°   Wind: 17mph
Humidity: 81%   Direction: 280°W
Pressure: 29.8"   Gusts: NA
Location:  57.87°N, 6.7°W
Report Text: EGPO 211850Z 28015KT 9999 VCSH FEW010 FEW012CB 06/03 Q1009
Loading
Personal Weather Stations






























Interactive Weather Map
Tropical Storm Tracking
New forecast layout! Learn more

10-Day Weather Forecast

Advertisements
Track Severe Weather on mobile